Schneifelwetter: Wetterstation Hallschlag, 537 m . NN
Wetterdaten: Sonntag, 19.06.2011
Datum Zeit Temp. A. Feuchte A. Luftdruck Regen Wind Richtung Richtung Sonnenschein Helligkeit T Regen Taupunkt Windchill
19.06.2011 00:01 8,1 C 93 % 1007 hPa 3,9 l/m 26,3 km/h (4 Bft) SW45 225 0 min 0 lux 15,00 min 7,0 C -1,1 C
19.06.2011 00:16 8,2 C 93 % 1007 hPa 0,0 l/m 31,6 km/h (5 Bft) W-SW45 250 0 min 0 lux 0,00 min 7,1 C -2,2 C
19.06.2011 00:31 8,2 C 93 % 1007 hPa 0,0 l/m 31,3 km/h (5 Bft) SW45 235 0 min 0 lux 0,00 min 7,1 C -2,2 C
19.06.2011 00:46 8,2 C 94 % 1007 hPa 0,0 l/m 25,4 km/h (4 Bft) W-SW45 240 0 min 0 lux 0,00 min 7,3 C -0,7 C
19.06.2011 01:01 8,2 C 94 % 1007 hPa 0,0 l/m 31,8 km/h (5 Bft) W-SW45 245 0 min 0 lux 0,00 min 7,3 C -2,3 C
19.06.2011 01:16 8,1 C 94 % 1007 hPa 0,0 l/m 33,4 km/h (5 Bft) W-SW45 245 0 min 0 lux 0,00 min 7,2 C -2,7 C
19.06.2011 01:31 8,1 C 94 % 1007 hPa 0,0 l/m 33,4 km/h (5 Bft) SW45 235 0 min 0 lux 0,00 min 7,2 C -2,7 C
19.06.2011 01:46 8,2 C 94 % 1007 hPa 0,0 l/m 30,6 km/h (5 Bft) W-SW22.5 255 0 min 0 lux 0,00 min 7,3 C -2,0 C
19.06.2011 02:01 8,2 C 94 % 1007 hPa 0,0 l/m 32,6 km/h (5 Bft) W-SW45 250 0 min 0 lux 0,00 min 7,3 C -2,4 C
19.06.2011 02:16 8,2 C 94 % 1007 hPa 0,0 l/m 30,1 km/h (5 Bft) W67.5 260 0 min 0 lux 0,00 min 7,3 C -1,9 C
19.06.2011 02:31 8,2 C 94 % 1007 hPa 0,0 l/m 25,6 km/h (4 Bft) SW45 235 0 min 0 lux 0,00 min 7,3 C -0,8 C
19.06.2011 02:46 8,2 C 94 % 1007 hPa 0,0 l/m 34,5 km/h (5 Bft) SW45 230 0 min 0 lux 0,00 min 7,3 C -2,8 C
19.06.2011 03:01 8,2 C 94 % 1007 hPa 0,0 l/m 33,5 km/h (5 Bft) SW45 225 0 min 0 lux 0,00 min 7,3 C -2,6 C
19.06.2011 03:16 8,1 C 94 % 1007 hPa 0,0 l/m 34,8 km/h (5 Bft) W-SW45 245 0 min 0 lux 0,00 min 7,2 C -3,0 C
19.06.2011 03:31 8,1 C 94 % 1007 hPa 0,0 l/m 32,1 km/h (5 Bft) W-SW67.5 250 0 min 0 lux 0,00 min 7,2 C -2,5 C
19.06.2011 03:46 8,1 C 94 % 1007 hPa 0,0 l/m 28,1 km/h (4 Bft) W-SW45 240 0 min 0 lux 0,00 min 7,2 C -1,6 C
19.06.2011 04:01 8,1 C 94 % 1007 hPa 0,0 l/m 28,7 km/h (4 Bft) SW45 235 0 min 0 lux 0,00 min 7,2 C -1,7 C
19.06.2011 04:16 8,1 C 94 % 1007 hPa 0,0 l/m 31,1 km/h (5 Bft) W-SW22.5 240 0 min 0 lux 0,00 min 7,2 C -2,3 C
19.06.2011 04:31 8,1 C 93 % 1007 hPa 0,0 l/m 36,8 km/h (5 Bft) W-SW45 240 0 min 0 lux 0,00 min 7,0 C -3,4 C
19.06.2011 04:46 8,1 C 93 % 1007 hPa 0,0 l/m 31,4 km/h (5 Bft) SW45 230 0 min 0 lux 0,00 min 7,0 C -2,3 C
19.06.2011 05:01 8,1 C 93 % 1007 hPa 0,0 l/m 34,3 km/h (5 Bft) W-SW45 245 0 min 0 lux 0,00 min 7,0 C -2,9 C
19.06.2011 05:16 8,0 C 94 % 1007 hPa 0,0 l/m 28,7 km/h (4 Bft) SW67.5 235 0 min 47 lux 0,00 min 7,1 C -1,8 C
19.06.2011 05:31 7,9 C 94 % 1007 hPa 0,0 l/m 37,2 km/h (5 Bft) SW45 230 0 min 174 lux 0,00 min 7,0 C -3,8 C
19.06.2011 05:46 7,9 C 94 % 1007 hPa 0,0 l/m 31,2 km/h (5 Bft) W-SW45 250 0 min 606 lux 0,00 min 7,0 C -2,6 C
19.06.2011 06:01 7,9 C 94 % 1007 hPa 0,0 l/m 27,6 km/h (4 Bft) SW67.5 230 0 min 1,39 klux 0,00 min 7,0 C -1,7 C
19.06.2011 06:16 7,8 C 94 % 1007 hPa 0,0 l/m 34,0 km/h (5 Bft) W-SW45 240 0 min 1,12 klux 0,00 min 6,9 C -3,3 C
19.06.2011 06:31 7,8 C 95 % 1007 hPa 0,0 l/m 30,7 km/h (5 Bft) W-SW45 240 0 min 1,50 klux 0,00 min 7,0 C -2,6 C
19.06.2011 06:46 7,8 C 95 % 1007 hPa 0,0 l/m 36,7 km/h (5 Bft) W-SW45 245 0 min 3,54 klux 0,00 min 7,0 C -3,8 C
19.06.2011 07:01 7,9 C 95 % 1007 hPa 0,0 l/m 32,5 km/h (5 Bft) W-SW45 250 0 min 6,94 klux 0,00 min 7,1 C -2,8 C
19.06.2011 07:16 7,9 C 95 % 1007 hPa 0,0 l/m 42,4 km/h (6 Bft) W-SW45 250 0 min 4,18 klux 0,00 min 7,1 C -4,6 C
19.06.2011 07:31 8,1 C 94 % 1007 hPa 0,9 l/m 29,9 km/h (5 Bft) W-SW67.5 240 0 min 15,0 klux 15,00 min 7,2 C -2,0 C
19.06.2011 07:46 8,1 C 94 % 1007 hPa 0,0 l/m 22,3 km/h (4 Bft) W-SW45 250 0 min 6,21 klux 0,00 min 7,2 C 0,1 C
19.06.2011 08:02 8,3 C 94 % 1007 hPa 0,3 l/m 31,7 km/h (5 Bft) W67.5 260 0 min 8,74 klux 16,00 min 7,4 C -2,1 C
19.06.2011 08:17 8,3 C 94 % 1007 hPa 0,0 l/m 32,9 km/h (5 Bft) W-SW45 240 0 min 10,0 klux 0,00 min 7,4 C -2,4 C
19.06.2011 08:32 8,3 C 94 % 1008 hPa 0,3 l/m 35,1 km/h (5 Bft) W-SW45 240 0 min 11,6 klux 15,00 min 7,4 C -2,8 C
19.06.2011 08:47 8,4 C 94 % 1008 hPa 0,3 l/m 29,8 km/h (5 Bft) W-SW45 250 0 min 7,60 klux 15,00 min 7,5 C -1,5 C
19.06.2011 09:02 8,2 C 94 % 1008 hPa 0,6 l/m 35,3 km/h (5 Bft) W-SW45 250 0 min 7,75 klux 15,00 min 7,3 C -3,0 C
19.06.2011 09:17 8,5 C 94 % 1008 hPa 0,3 l/m 32,6 km/h (5 Bft) W-SW45 250 0 min 22,9 klux 15,00 min 7,6 C -2,0 C
19.06.2011 09:32 8,8 C 94 % 1008 hPa 0,6 l/m 34,6 km/h (5 Bft) W45 260 0 min 27,0 klux 15,00 min 7,9 C -2,0 C
19.06.2011 09:47 8,8 C 93 % 1008 hPa 0,0 l/m 35,4 km/h (5 Bft) W-SW67.5 250 0 min 11,8 klux 0,00 min 7,7 C -2,1 C
19.06.2011 10:02 8,8 C 93 % 1008 hPa 0,0 l/m 52,9 km/h (7 Bft) W-SW67.5 250 0 min 28,3 klux 0,00 min 7,7 C -4,4 C
19.06.2011 10:16 8,9 C 92 % 1009 hPa 0,3 l/m 40,8 km/h (6 Bft) W-SW67.5 255 0 min 22,6 klux 14,00 min 7,7 C -2,9 C
19.06.2011 10:31 8,5 C 93 % 1009 hPa 0,3 l/m 32,6 km/h (5 Bft) W-SW45 250 0 min 11,7 klux 15,00 min 7,4 C -2,0 C
19.06.2011 10:46 8,4 C 93 % 1009 hPa 0,0 l/m 29,3 km/h (5 Bft) W-SW22.5 255 0 min 11,7 klux 0,00 min 7,3 C -1,4 C
19.06.2011 11:01 8,9 C 94 % 1009 hPa 0,0 l/m 30,0 km/h (5 Bft) W-SW67.5 255 0 min 17,5 klux 0,00 min 8,0 C -0,9 C
19.06.2011 11:17 8,9 C 93 % 1009 hPa 0,0 l/m 32,8 km/h (5 Bft) W-SW45 255 0 min 12,0 klux 0,00 min 7,8 C -1,5 C
19.06.2011 11:31 10,8 C 95 % 1009 hPa 0,0 l/m 29,3 km/h (5 Bft) W-SW45 250 14 min 122 klux 0,00 min 10,0 C 1,9 C
19.06.2011 11:46 11,1 C 89 % 1009 hPa 0,3 l/m 39,3 km/h (6 Bft) W67.5 260 15 min 79,6 klux 15,00 min 9,4 C 0,6 C
19.06.2011 12:01 11,2 C 90 % 1010 hPa 0,0 l/m 34,4 km/h (5 Bft) W-SW22.5 255 0 min 53,8 klux 0,00 min 9,6 C 1,5 C
19.06.2011 12:16 10,8 C 88 % 1010 hPa 0,0 l/m 38,8 km/h (5 Bft) W-SW22.5 255 0 min 22,4 klux 0,00 min 8,9 C 0,3 C
19.06.2011 12:31 11,0 C 88 % 1010 hPa 0,0 l/m 42,2 km/h (6 Bft) W45 260 0 min 45,2 klux 0,00 min 9,1 C 0,1 C
19.06.2011 12:46 11,8 C 88 % 1010 hPa 0,0 l/m 45,4 km/h (6 Bft) W22.5 265 0 min 47,9 klux 0,00 min 9,9 C 0,9 C
19.06.2011 13:02 12,9 C 85 % 1010 hPa 0,0 l/m 40,8 km/h (6 Bft) W-SW45 255 16 min 119 klux 0,00 min 10,4 C 3,1 C
19.06.2011 13:16 13,8 C 80 % 1010 hPa 0,0 l/m 39,3 km/h (6 Bft) W45 260 14 min 83,3 klux 0,00 min 10,4 C 4,6 C
19.06.2011 13:31 13,1 C 79 % 1010 hPa 0,0 l/m 34,4 km/h (5 Bft) W-SW45 250 0 min 48,0 klux 0,00 min 9,5 C 4,3 C
19.06.2011 13:46 13,6 C 80 % 1011 hPa 0,0 l/m 34,3 km/h (5 Bft) W45 270 15 min 122 klux 0,00 min 10,2 C 5,0 C
19.06.2011 14:01 13,3 C 78 % 1010 hPa 0,0 l/m 34,1 km/h (5 Bft) W67.5 270 0 min 35,2 klux 0,00 min 9,5 C 4,6 C
19.06.2011 14:16 13,2 C 79 % 1011 hPa 0,0 l/m 35,1 km/h (5 Bft) W22.5 260 0 min 38,4 klux 0,00 min 9,6 C 4,3 C
19.06.2011 14:32 12,3 C 81 % 1011 hPa 0,0 l/m 49,1 km/h (6 Bft) W45 260 0 min 53,7 klux 0,00 min 9,1 C 1,3 C
19.06.2011 14:46 13,3 C 84 % 1011 hPa 0,0 l/m 27,9 km/h (4 Bft) W-SW45 250 14 min 108 klux 0,00 min 10,7 C 5,7 C
19.06.2011 15:01 12,7 C 82 % 1011 hPa 0,9 l/m 25,4 km/h (4 Bft) W-SW22.5 255 0 min 23,5 klux 15,00 min 9,7 C 5,4 C
19.06.2011 15:16 12,0 C 85 % 1011 hPa 1,8 l/m 31,2 km/h (5 Bft) W45 265 0 min 47,9 klux 15,00 min 9,6 C 3,2 C
19.06.2011 15:31 13,2 C 86 % 1011 hPa 0,0 l/m 27,0 km/h (4 Bft) W45 265 15 min 108 klux 0,00 min 10,9 C 5,7 C
19.06.2011 15:46 12,7 C 83 % 1011 hPa 0,0 l/m 31,7 km/h (5 Bft) W45 270 0 min 49,2 klux 0,00 min 9,9 C 4,1 C
19.06.2011 16:01 13,1 C 83 % 1012 hPa 0,0 l/m 40,4 km/h (6 Bft) W22.5 260 0 min 44,5 klux 0,00 min 10,3 C 3,4 C
19.06.2011 16:17 13,1 C 82 % 1012 hPa 0,0 l/m 26,1 km/h (4 Bft) W45 265 0 min 42,9 klux 0,00 min 10,1 C 5,8 C
19.06.2011 16:31 12,8 C 83 % 1012 hPa 0,0 l/m 38,1 km/h (5 Bft) W-SW45 255 0 min 60,2 klux 0,00 min 10,0 C 3,3 C
19.06.2011 16:46 13,1 C 82 % 1012 hPa 0,0 l/m 35,4 km/h (5 Bft) W22.5 260 0 min 52,5 klux 0,00 min 10,1 C 4,1 C
19.06.2011 17:01 12,5 C 82 % 1012 hPa 0,0 l/m 47,1 km/h (6 Bft) W-SW67.5 255 0 min 23,8 klux 0,00 min 9,5 C 1,8 C
19.06.2011 17:16 12,6 C 86 % 1012 hPa 0,6 l/m 29,8 km/h (5 Bft) W-SW22.5 255 15 min 72,2 klux 15,00 min 10,3 C 4,4 C
19.06.2011 17:31 13,0 C 83 % 1012 hPa 0,0 l/m 32,4 km/h (5 Bft) W67.5 270 15 min 80,3 klux 0,00 min 10,2 C 4,5 C
19.06.2011 17:46 13,3 C 81 % 1012 hPa 0,0 l/m 38,1 km/h (5 Bft) W45 270 15 min 76,6 klux 0,00 min 10,1 C 4,0 C
19.06.2011 18:02 12,2 C 82 % 1012 hPa 0,0 l/m 37,8 km/h (5 Bft) W45 265 0 min 15,8 klux 0,00 min 9,2 C 2,5 C
19.06.2011 18:16 11,6 C 84 % 1013 hPa 0,0 l/m 27,7 km/h (4 Bft) W45 270 0 min 9,9 klux 0,00 min 9,0 C 3,4 C
19.06.2011 18:31 11,2 C 86 % 1013 hPa 0,0 l/m 21,8 km/h (4 Bft) W45 270 0 min 38,3 klux 0,00 min 8,9 C 4,3 C
19.06.2011 18:46 11,8 C 87 % 1013 hPa 0,0 l/m 27,7 km/h (4 Bft) W67.5 260 0 min 57,2 klux 0,00 min 9,7 C 3,7 C
19.06.2011 19:01 12,0 C 85 % 1013 hPa 0,0 l/m 34,3 km/h (5 Bft) W22.5 265 0 min 17,7 klux 0,00 min 9,6 C 2,7 C
19.06.2011 19:16 12,1 C 83 % 1013 hPa 0,0 l/m 29,7 km/h (5 Bft) W22.5 260 0 min 28,4 klux 0,00 min 9,3 C 3,7 C
19.06.2011 19:32 12,1 C 81 % 1013 hPa 0,0 l/m 37,0 km/h (5 Bft) W45 270 0 min 32,0 klux 0,00 min 8,9 C 2,4 C
19.06.2011 19:46 12,1 C 81 % 1013 hPa 0,0 l/m 36,4 km/h (5 Bft) W45 260 0 min 20,4 klux 0,00 min 8,9 C 2,5 C
19.06.2011 20:01 11,9 C 80 % 1013 hPa 0,0 l/m 31,1 km/h (5 Bft) W45 265 0 min 16,1 klux 0,00 min 8,6 C 3,1 C
19.06.2011 20:16 11,8 C 81 % 1013 hPa 0,0 l/m 34,6 km/h (5 Bft) W-SW22.5 255 0 min 19,8 klux 0,00 min 8,6 C 2,4 C
19.06.2011 20:31 11,8 C 79 % 1013 hPa 0,0 l/m 33,6 km/h (5 Bft) W45 260 0 min 24,2 klux 0,00 min 8,3 C 2,5 C
19.06.2011 20:46 11,3 C 80 % 1013 hPa 0,0 l/m 29,6 km/h (5 Bft) W45 260 0 min 17,2 klux 0,00 min 8,0 C 2,6 C
19.06.2011 21:01 11,0 C 81 % 1013 hPa 0,6 l/m 31,9 km/h (5 Bft) W45 260 0 min 12,3 klux 15,00 min 7,9 C 1,7 C
19.06.2011 21:17 10,6 C 81 % 1014 hPa 0,0 l/m 31,5 km/h (5 Bft) W22.5 265 0 min 4,74 klux 0,00 min 7,5 C 1,2 C
19.06.2011 21:31 10,2 C 82 % 1014 hPa 0,0 l/m 22,6 km/h (4 Bft) W22.5 265 0 min 2,84 klux 0,00 min 7,3 C 2,8 C
19.06.2011 21:46 9,8 C 83 % 1014 hPa 0,0 l/m 20,0 km/h (4 Bft) W45 270 0 min 1,23 klux 0,00 min 7,1 C 3,0 C
19.06.2011 22:01 9,5 C 84 % 1014 hPa 0,0 l/m 12,8 km/h (3 Bft) W-SW 250 0 min 516 lux 0,00 min 6,9 C 5,5 C
19.06.2011 22:16 8,8 C 85 % 1014 hPa 0,0 l/m 11,6 km/h (2 Bft) W-SW 250 0 min 157 lux 0,00 min 6,4 C 5,3 C
19.06.2011 22:31 8,2 C 86 % 1014 hPa 0,0 l/m 6,7 km/h (2 Bft) SW 230 0 min 35 lux 0,00 min 6,0 C 8,0 C
19.06.2011 22:46 7,6 C 86 % 1015 hPa 0,0 l/m 3,9 km/h (1 Bft) SW 230 0 min 4 lux 0,00 min 5,4 C 7,6 C
19.06.2011 23:02 7,4 C 88 % 1014 hPa 0,0 l/m 8,7 km/h (2 Bft) W 260 0 min 0 lux 0,00 min 5,5 C 5,6 C
19.06.2011 23:16 7,2 C 88 % 1015 hPa 0,0 l/m 1,0 km/h (0 Bft) W-SW 240 0 min 0 lux 0,00 min 5,3 C 7,2 C
19.06.2011 23:31 6,8 C 89 % 1015 hPa 0,0 l/m 6,7 km/h (2 Bft) W-SW 240 0 min 0 lux 0,00 min 5,1 C 6,6 C
19.06.2011 23:46 6,5 C 89 % 1015 hPa 0,0 l/m 6,1 km/h (2 Bft) W-SW 240 0 min 0 lux 0,00 min 4,8 C 6,5 C
19.06.2011 23:56 6,4 C 90 % 1015 hPa 0,0 l/m 11,0 km/h (2 Bft) W-SW22.5 255 0 min 0 lux 0,00 min 4,9 C 3,0 C
_ Min-Zeit 23:56 14:01 00:01 - 23:16 - - - - - 23:46 07:16
Minimum _ 6,4 C 78 % 1007 hPa - 1,0 km/h (0 Bft) - - - - - 4,8 C -4,6 C
_ Max-Zeit 13:16 06:31 22:46 00:01 10:02 - - 13:02 11:31 08:02 15:31 22:31
Maximum _ 13,8 C 95 % 1015 hPa 3,9 l/m 52,9 km/h
W-SW (7 Bft)
- - 16 min 122 klux 16,00 min 10,9 C 8,0 C
Durchschnitt _ 9,9 C 89 % 1010 hPa #12,0 l/m 30,7 km/h (5 Bft) W-SW - #2:28 h 23,0 klux #3:45 h 8,0 C 0,8 C